createdAt,value
2018-07-10T00:00:19.785Z,0.00
2018-07-10T00:01:19.777Z,0.00
2018-07-10T00:02:19.784Z,0.00
2018-07-10T00:03:19.757Z,0.00
2018-07-10T00:04:19.741Z,0.00
2018-07-10T00:05:19.732Z,0.00
2018-07-10T00:06:19.720Z,0.00
2018-07-10T00:07:19.754Z,0.00
2018-07-10T00:08:19.698Z,0.00
2018-07-10T00:09:19.689Z,0.00
2018-07-10T00:10:19.680Z,0.00
2018-07-10T00:11:19.668Z,0.00
2018-07-10T00:12:19.714Z,0.00
2018-07-10T00:13:19.663Z,0.00
2018-07-10T00:14:19.638Z,0.00
2018-07-10T00:15:19.625Z,0.00
2018-07-10T00:16:19.617Z,0.00
2018-07-10T00:17:19.605Z,0.00
2018-07-10T00:18:19.610Z,0.00
2018-07-10T00:19:19.599Z,0.00
2018-07-10T00:20:19.575Z,0.00
2018-07-10T00:21:19.577Z,0.00
2018-07-10T00:22:19.554Z,0.00
2018-07-10T00:23:19.542Z,0.00
2018-07-10T00:24:19.545Z,0.00
2018-07-10T00:25:19.520Z,0.00
2018-07-10T00:26:19.508Z,0.00
2018-07-10T00:27:19.499Z,0.00
2018-07-10T00:28:19.489Z,0.00
2018-07-10T00:29:19.510Z,0.00
2018-07-10T00:30:19.467Z,0.00
2018-07-10T00:31:19.463Z,0.00
2018-07-10T00:32:19.449Z,0.00
2018-07-10T00:33:19.438Z,0.00
2018-07-10T00:34:19.425Z,0.00
2018-07-10T00:35:19.430Z,0.00
2018-07-10T00:36:19.409Z,0.00
2018-07-10T00:37:19.395Z,0.00
2018-07-10T00:38:19.384Z,0.00
2018-07-10T00:39:19.386Z,0.00
2018-07-10T00:40:19.364Z,0.00
2018-07-10T00:41:19.365Z,0.00
2018-07-10T00:42:19.344Z,0.00
2018-07-10T00:43:19.330Z,0.00
2018-07-10T00:44:19.334Z,0.00
2018-07-10T00:45:19.312Z,0.00
2018-07-10T00:46:19.300Z,0.00
2018-07-10T00:47:19.301Z,0.00
2018-07-10T00:48:19.283Z,0.00
2018-07-10T00:49:19.313Z,0.00
2018-07-10T00:50:19.259Z,0.00
2018-07-10T00:51:19.253Z,0.00
2018-07-10T00:52:19.236Z,0.00
2018-07-10T00:53:19.225Z,0.00
2018-07-10T00:54:19.216Z,0.00
2018-07-10T00:55:19.221Z,0.00
2018-07-10T00:56:19.197Z,0.00
2018-07-10T00:57:19.185Z,0.00
2018-07-10T00:58:19.174Z,0.00
2018-07-10T00:59:19.161Z,0.00
2018-07-10T01:00:19.150Z,0.00
2018-07-10T01:01:19.158Z,0.00
2018-07-10T01:02:19.133Z,0.00
2018-07-10T01:03:19.121Z,0.00
2018-07-10T01:04:19.110Z,0.00
2018-07-10T01:05:19.100Z,0.00
2018-07-10T01:06:19.102Z,0.00
2018-07-10T01:07:19.090Z,0.00
2018-07-10T01:08:19.068Z,0.00
2018-07-10T01:09:19.054Z,0.00
2018-07-10T01:10:19.048Z,0.00
2018-07-10T01:11:19.034Z,0.00
2018-07-10T01:12:19.039Z,0.00
2018-07-10T01:13:19.012Z,0.00
2018-07-10T01:14:19.001Z,0.00
2018-07-10T01:15:18.992Z,0.00
2018-07-10T01:16:18.997Z,0.00
2018-07-10T01:17:18.967Z,0.00
2018-07-10T01:18:18.984Z,0.00
2018-07-10T01:19:18.953Z,0.00
2018-07-10T01:20:18.937Z,0.00
2018-07-10T01:21:18.923Z,0.00
2018-07-10T01:22:18.916Z,0.00
2018-07-10T01:23:18.905Z,0.00
2018-07-10T01:24:18.909Z,0.00
2018-07-10T01:25:18.896Z,0.00
2018-07-10T01:26:18.869Z,0.00
2018-07-10T01:27:18.861Z,0.00
2018-07-10T01:28:18.860Z,0.00
2018-07-10T01:29:18.838Z,0.00
2018-07-10T01:30:18.825Z,0.00
2018-07-10T01:31:18.831Z,0.00
2018-07-10T01:32:18.809Z,0.00
2018-07-10T01:33:18.793Z,0.00
2018-07-10T01:34:18.785Z,0.00
2018-07-10T01:35:18.788Z,0.00
2018-07-10T01:36:18.759Z,0.00
2018-07-10T01:37:18.749Z,0.00
2018-07-10T01:38:18.740Z,0.00
2018-07-10T01:39:18.729Z,0.00
2018-07-10T01:40:18.733Z,0.00
2018-07-10T01:41:18.705Z,0.00
2018-07-10T01:42:18.697Z,0.00
2018-07-10T01:43:18.685Z,0.00
2018-07-10T01:44:18.673Z,0.00
2018-07-10T01:45:18.678Z,0.00
2018-07-10T01:46:18.650Z,0.00
2018-07-10T01:47:18.642Z,0.00
2018-07-10T01:48:18.628Z,0.00
2018-07-10T01:49:18.617Z,0.00
2018-07-10T01:50:18.623Z,0.00
2018-07-10T01:51:18.595Z,0.00
2018-07-10T01:52:18.591Z,0.00
2018-07-10T01:53:18.575Z,0.00
2018-07-10T01:54:18.565Z,0.00
2018-07-10T01:55:18.568Z,0.00
2018-07-10T01:56:18.540Z,0.00
2018-07-10T01:57:18.541Z,0.00
2018-07-10T01:58:18.520Z,0.00
2018-07-10T01:59:18.510Z,0.00
2018-07-10T02:00:18.494Z,0.00
2018-07-10T02:01:18.485Z,0.00
2018-07-10T02:02:18.497Z,0.00
2018-07-10T02:03:18.464Z,0.00
2018-07-10T02:04:18.455Z,0.00
2018-07-10T02:05:18.445Z,0.00
2018-07-10T02:06:18.434Z,0.00
2018-07-10T02:07:18.437Z,0.00
2018-07-10T02:08:18.412Z,0.00
2018-07-10T02:09:18.417Z,0.00
2018-07-10T02:10:18.390Z,0.00
2018-07-10T02:11:18.377Z,0.00
2018-07-10T02:12:18.388Z,0.00
2018-07-10T02:13:18.355Z,0.00
2018-07-10T02:14:18.347Z,0.00
2018-07-10T02:15:18.336Z,0.00
2018-07-10T02:16:18.326Z,0.00
2018-07-10T02:17:18.312Z,0.00
2018-07-10T02:18:18.330Z,0.00
2018-07-10T02:19:18.290Z,0.00
2018-07-10T02:20:18.279Z,0.00
2018-07-10T02:21:18.269Z,0.00
2018-07-10T02:22:18.259Z,0.00
2018-07-10T02:23:18.249Z,0.00
2018-07-10T02:24:18.252Z,0.00
2018-07-10T02:25:18.243Z,0.00
2018-07-10T02:26:18.217Z,0.00
2018-07-10T02:27:18.203Z,0.00
2018-07-10T02:28:18.195Z,0.00
2018-07-10T02:29:18.181Z,0.00
2018-07-10T02:30:18.185Z,0.00
2018-07-10T02:31:18.164Z,0.00
2018-07-10T02:32:18.152Z,0.00
2018-07-10T02:33:18.141Z,0.00
2018-07-10T02:34:18.129Z,0.00
2018-07-10T02:35:18.130Z,0.00
2018-07-10T02:36:18.108Z,0.00
2018-07-10T02:37:18.097Z,0.00
2018-07-10T02:38:18.088Z,0.00
2018-07-10T02:39:18.076Z,0.00
2018-07-10T02:40:18.075Z,4.00
2018-07-10T02:41:18.054Z,4.00
2018-07-10T02:42:18.057Z,0.00
2018-07-10T02:43:18.039Z,4.00
2018-07-10T02:44:18.020Z,4.00
2018-07-10T02:45:18.023Z,4.00
2018-07-10T02:46:17.996Z,4.00
2018-07-10T02:47:17.988Z,8.00
2018-07-10T02:48:17.992Z,4.00
2018-07-10T02:49:17.968Z,8.00
2018-07-10T02:50:17.953Z,8.00
2018-07-10T02:51:17.945Z,8.00
2018-07-10T02:52:17.932Z,12.00
2018-07-10T02:53:17.937Z,12.00
2018-07-10T02:54:17.913Z,16.00
2018-07-10T02:55:17.898Z,12.00
2018-07-10T02:56:17.889Z,12.00
2018-07-10T02:57:17.881Z,20.00
2018-07-10T02:58:17.884Z,24.00
2018-07-10T02:59:17.857Z,32.00
2018-07-10T03:00:17.845Z,32.00
2018-07-10T03:01:17.851Z,36.00
2018-07-10T03:02:17.823Z,40.00
2018-07-10T03:03:17.825Z,48.00
2018-07-10T03:04:17.811Z,52.00
2018-07-10T03:05:17.790Z,60.00
2018-07-10T03:06:17.780Z,64.00
2018-07-10T03:07:17.811Z,68.00
2018-07-10T03:08:17.761Z,72.00
2018-07-10T03:09:17.747Z,76.00
2018-07-10T03:10:17.740Z,84.00
2018-07-10T03:11:17.727Z,96.00
2018-07-10T03:12:17.716Z,108.00
2018-07-10T03:13:17.720Z,120.00
2018-07-10T03:14:17.693Z,140.00
2018-07-10T03:15:17.698Z,152.00
2018-07-10T03:16:17.671Z,168.00
2018-07-10T03:17:17.666Z,192.00
2018-07-10T03:18:17.672Z,212.00
2018-07-10T03:19:17.641Z,240.00
2018-07-10T03:20:17.630Z,264.00
2018-07-10T03:21:17.633Z,288.00
2018-07-10T03:22:17.608Z,312.00
2018-07-10T03:23:17.593Z,344.00
2018-07-10T03:24:17.600Z,372.00
2018-07-10T03:25:17.574Z,392.00
2018-07-10T03:26:17.563Z,424.00
2018-07-10T03:27:17.554Z,460.00
2018-07-10T03:28:17.543Z,500.00
2018-07-10T03:29:17.547Z,540.00
2018-07-10T03:30:17.590Z,580.00
2018-07-10T03:31:17.507Z,624.00
2018-07-10T03:32:17.498Z,656.00
2018-07-10T03:33:17.489Z,676.00
2018-07-10T03:34:17.476Z,688.00
2018-07-10T03:35:17.476Z,716.00
2018-07-10T03:36:17.485Z,756.00
2018-07-10T03:37:17.446Z,804.00
2018-07-10T03:38:17.435Z,848.00
2018-07-10T03:39:17.424Z,880.00
2018-07-10T03:40:17.412Z,892.00
2018-07-10T03:41:17.437Z,900.00
2018-07-10T03:42:17.389Z,948.00
2018-07-10T03:43:17.378Z,1012.00
2018-07-10T03:44:17.369Z,1088.00
2018-07-10T03:45:17.365Z,1132.00
2018-07-10T03:46:17.344Z,1176.00
2018-07-10T03:47:17.350Z,1228.00
2018-07-10T03:48:17.332Z,1244.00
2018-07-10T03:49:17.315Z,1304.00
2018-07-10T03:50:17.305Z,1320.00
2018-07-10T03:51:17.294Z,1348.00
2018-07-10T03:52:17.299Z,1332.00
2018-07-10T03:53:17.271Z,1368.00
2018-07-10T03:54:17.261Z,1428.00
2018-07-10T03:55:17.247Z,1504.00
2018-07-10T03:56:17.240Z,1544.00
2018-07-10T03:57:17.247Z,1552.00
2018-07-10T03:58:17.215Z,1588.00
2018-07-10T03:59:17.208Z,1628.00
2018-07-10T04:00:17.197Z,1696.00
2018-07-10T04:01:17.182Z,1748.00
2018-07-10T04:02:17.174Z,1720.00
2018-07-10T04:03:17.175Z,1744.00
2018-07-10T04:04:17.150Z,1804.00
2018-07-10T04:05:17.161Z,1896.00
2018-07-10T04:06:17.129Z,2104.00
2018-07-10T04:07:17.123Z,2276.00
2018-07-10T04:08:17.125Z,2336.00
2018-07-10T04:09:17.100Z,2292.00
2018-07-10T04:10:17.097Z,2172.00
2018-07-10T04:11:17.076Z,1948.00
2018-07-10T04:12:17.063Z,1752.00
2018-07-10T04:13:17.065Z,1684.00
2018-07-10T04:14:17.041Z,1540.00
2018-07-10T04:15:17.035Z,1480.00
2018-07-10T04:16:17.021Z,1508.00
2018-07-10T04:17:17.009Z,1556.00
2018-07-10T04:18:17.023Z,1660.00
2018-07-10T04:19:16.991Z,1816.00
2018-07-10T04:20:16.979Z,1924.00
2018-07-10T04:21:16.971Z,1948.00
2018-07-10T04:22:16.955Z,1936.00
2018-07-10T04:23:16.947Z,1916.00
2018-07-10T04:24:16.947Z,1952.00
2018-07-10T04:25:16.923Z,1984.00
2018-07-10T04:26:16.912Z,2000.00
2018-07-10T04:27:16.899Z,2028.00
2018-07-10T04:28:16.893Z,2168.00
2018-07-10T04:29:16.898Z,2296.00
2018-07-10T04:30:16.877Z,2276.00
2018-07-10T04:31:16.858Z,2184.00
2018-07-10T04:32:16.848Z,2152.00
2018-07-10T04:33:16.836Z,2192.00
2018-07-10T04:34:16.847Z,2192.00
2018-07-10T04:35:16.855Z,2164.00
2018-07-10T04:36:16.806Z,2240.00
2018-07-10T04:37:16.795Z,2352.00
2018-07-10T04:38:16.781Z,2456.00
2018-07-10T04:39:16.772Z,2464.00
2018-07-10T04:40:16.762Z,2368.00
2018-07-10T04:41:16.766Z,2284.00
2018-07-10T04:42:16.818Z,2256.00
2018-07-10T04:43:16.728Z,2316.00
2018-07-10T04:44:16.715Z,2496.00
2018-07-10T04:45:16.703Z,2700.00
2018-07-10T04:46:16.693Z,2804.00
2018-07-10T04:47:16.685Z,2800.00
2018-07-10T04:48:16.689Z,2732.00
2018-07-10T04:49:16.665Z,2664.00
2018-07-10T04:50:16.648Z,2600.00
2018-07-10T04:51:16.638Z,2552.00
2018-07-10T04:52:16.627Z,2544.00
2018-07-10T04:53:16.617Z,2564.00
2018-07-10T04:54:16.622Z,2584.00
2018-07-10T04:55:16.594Z,2576.00
2018-07-10T04:56:16.585Z,2588.00
2018-07-10T04:57:16.576Z,2672.00
2018-07-10T04:58:16.564Z,2864.00
2018-07-10T04:59:16.567Z,3132.00
2018-07-10T05:00:16.541Z,3388.00
2018-07-10T05:01:16.529Z,3632.00
2018-07-10T05:02:16.530Z,3924.00
2018-07-10T05:03:16.510Z,4092.00
2018-07-10T05:04:16.509Z,4100.00
2018-07-10T05:05:16.487Z,3972.00
2018-07-10T05:06:16.475Z,3764.00
2018-07-10T05:07:16.463Z,3544.00
2018-07-10T05:08:16.496Z,3352.00
2018-07-10T05:09:16.450Z,3144.00
2018-07-10T05:10:16.433Z,2968.00
2018-07-10T05:11:16.419Z,2852.00
2018-07-10T05:12:16.448Z,2740.00
2018-07-10T05:13:16.400Z,2692.00
2018-07-10T05:14:16.390Z,2804.00
2018-07-10T05:15:16.377Z,2884.00
2018-07-10T05:16:16.366Z,2860.00
2018-07-10T05:17:16.355Z,2792.00
2018-07-10T05:18:16.360Z,2752.00
2018-07-10T05:19:16.335Z,2776.00
2018-07-10T05:20:16.323Z,2856.00
2018-07-10T05:21:16.311Z,2964.00
2018-07-10T05:22:16.300Z,2984.00
2018-07-10T05:23:16.289Z,3004.00
2018-07-10T05:24:16.348Z,3080.00
2018-07-10T05:25:16.267Z,3096.00
2018-07-10T05:26:16.260Z,2840.00
2018-07-10T05:27:16.245Z,3000.00
2018-07-10T05:28:16.232Z,2996.00
2018-07-10T05:29:16.241Z,2772.00
2018-07-10T05:30:16.216Z,2760.00
2018-07-10T05:31:16.209Z,2772.00
2018-07-10T05:32:16.188Z,2612.00
2018-07-10T05:33:16.181Z,2752.00
2018-07-10T05:34:16.166Z,2860.00
2018-07-10T05:35:16.192Z,2720.00
2018-07-10T05:36:16.145Z,2888.00
2018-07-10T05:37:16.175Z,2976.00
2018-07-10T05:38:16.123Z,2524.00
2018-07-10T05:39:16.113Z,2336.00
2018-07-10T05:40:16.104Z,2472.00
2018-07-10T05:41:16.104Z,2820.00
2018-07-10T05:42:16.081Z,2856.00
2018-07-10T05:43:16.068Z,2884.00
2018-07-10T05:44:16.058Z,2860.00
2018-07-10T05:45:16.048Z,2880.00
2018-07-10T05:46:16.087Z,2864.00
2018-07-10T05:47:16.025Z,2612.00
2018-07-10T05:48:16.017Z,2116.00
2018-07-10T05:49:16.003Z,2092.00
2018-07-10T05:50:15.996Z,2040.00
2018-07-10T05:51:15.981Z,1896.00
2018-07-10T05:52:15.984Z,2072.00
2018-07-10T05:53:15.972Z,1920.00
2018-07-10T05:54:15.952Z,2752.00
2018-07-10T05:55:15.941Z,3508.00
2018-07-10T05:56:15.930Z,3952.00
2018-07-10T05:57:15.920Z,5340.00
2018-07-10T05:58:15.922Z,7064.00
2018-07-10T05:59:15.898Z,8316.00
2018-07-10T06:00:15.906Z,9076.00
2018-07-10T06:01:15.886Z,9824.00
2018-07-10T06:02:15.866Z,9948.00
2018-07-10T06:03:15.866Z,9204.00
2018-07-10T06:04:15.844Z,9660.00
2018-07-10T06:05:15.834Z,11588.00
2018-07-10T06:06:15.834Z,12000.00
2018-07-10T06:07:15.811Z,11344.00
2018-07-10T06:08:15.815Z,10292.00
2018-07-10T06:09:15.786Z,9768.00
2018-07-10T06:10:15.778Z,8196.00
2018-07-10T06:11:15.765Z,7040.00
2018-07-10T06:12:15.755Z,5860.00
2018-07-10T06:13:15.758Z,4348.00
2018-07-10T06:14:15.734Z,3544.00
2018-07-10T06:15:15.727Z,3288.00
2018-07-10T06:16:15.782Z,3224.00
2018-07-10T06:17:15.701Z,3416.00
2018-07-10T06:18:15.688Z,3536.00
2018-07-10T06:19:15.699Z,3400.00
2018-07-10T06:20:15.666Z,3464.00
2018-07-10T06:21:15.655Z,3600.00
2018-07-10T06:22:15.697Z,3544.00
2018-07-10T06:23:15.640Z,3636.00
2018-07-10T06:24:15.625Z,3548.00
2018-07-10T06:25:15.629Z,3648.00
2018-07-10T06:26:15.631Z,3768.00
2018-07-10T06:27:15.593Z,3612.00
2018-07-10T06:28:15.588Z,3320.00
2018-07-10T06:29:15.569Z,3284.00
2018-07-10T06:30:15.596Z,3624.00
2018-07-10T06:31:15.548Z,4188.00
2018-07-10T06:32:15.556Z,4424.00
2018-07-10T06:33:15.524Z,4080.00
2018-07-10T06:34:15.518Z,3968.00
2018-07-10T06:35:15.503Z,3868.00
2018-07-10T06:36:15.494Z,4108.00
2018-07-10T06:37:15.482Z,4144.00
2018-07-10T06:38:15.486Z,4296.00
2018-07-10T06:39:15.459Z,4052.00
2018-07-10T06:40:15.451Z,3668.00
2018-07-10T06:41:15.438Z,3548.00
2018-07-10T06:42:15.429Z,3588.00
2018-07-10T06:43:15.418Z,4040.00
2018-07-10T06:44:15.419Z,4752.00
2018-07-10T06:45:15.397Z,5032.00
2018-07-10T06:46:15.385Z,5012.00
2018-07-10T06:47:15.375Z,5460.00
2018-07-10T06:48:15.362Z,6348.00
2018-07-10T06:49:15.367Z,7860.00
2018-07-10T06:50:15.343Z,9576.00
2018-07-10T06:51:15.332Z,11132.00
2018-07-10T06:52:15.421Z,11696.00
2018-07-10T06:53:15.728Z,11676.00
2018-07-10T06:54:15.301Z,11112.00
2018-07-10T06:55:15.285Z,10208.00
2018-07-10T06:56:15.287Z,9956.00
2018-07-10T06:57:15.263Z,9584.00
2018-07-10T06:58:15.269Z,8460.00
2018-07-10T06:59:15.242Z,8080.00
2018-07-10T07:00:15.266Z,6924.00
2018-07-10T07:01:15.222Z,6040.00
2018-07-10T07:02:15.210Z,5932.00
2018-07-10T07:03:15.210Z,6132.00
2018-07-10T07:04:15.192Z,6232.00
2018-07-10T07:05:15.179Z,6284.00
2018-07-10T07:06:15.167Z,6440.00
2018-07-10T07:07:15.154Z,6260.00
2018-07-10T07:08:15.160Z,5776.00
2018-07-10T07:09:15.132Z,5640.00
2018-07-10T07:10:15.124Z,5960.00
2018-07-10T07:11:15.123Z,7008.00
2018-07-10T07:12:15.117Z,8584.00
2018-07-10T07:13:15.088Z,9716.00
2018-07-10T07:14:15.093Z,9960.00
2018-07-10T07:15:15.066Z,9752.00
2018-07-10T07:16:15.057Z,9292.00
2018-07-10T07:17:15.044Z,8584.00
2018-07-10T07:18:15.032Z,8752.00
2018-07-10T07:19:15.048Z,10544.00
2018-07-10T07:20:15.014Z,12664.00
2018-07-10T07:21:15.013Z,12780.00
2018-07-10T07:22:14.989Z,11976.00
2018-07-10T07:23:14.977Z,11312.00
2018-07-10T07:24:14.973Z,9824.00
2018-07-10T07:25:14.973Z,8140.00
2018-07-10T07:26:14.948Z,6484.00
2018-07-10T07:27:14.937Z,5520.00
2018-07-10T07:28:14.940Z,5412.00
2018-07-10T07:29:14.917Z,5872.00
2018-07-10T07:30:14.907Z,6188.00
2018-07-10T07:31:14.916Z,6332.00
2018-07-10T07:32:14.883Z,6800.00
2018-07-10T07:33:14.874Z,7348.00
2018-07-10T07:34:14.862Z,8056.00
2018-07-10T07:35:14.850Z,8416.00
2018-07-10T07:36:14.840Z,8988.00
2018-07-10T07:37:14.844Z,9684.00
2018-07-10T07:38:14.821Z,9432.00
2018-07-10T07:39:14.809Z,9256.00
2018-07-10T07:40:14.797Z,9404.00
2018-07-10T07:41:14.785Z,9108.00
2018-07-10T07:42:14.794Z,8608.00
2018-07-10T07:43:14.769Z,8180.00
2018-07-10T07:44:14.777Z,7612.00
2018-07-10T07:45:14.741Z,7280.00
2018-07-10T07:46:14.730Z,6692.00
2018-07-10T07:47:14.721Z,6724.00
2018-07-10T07:48:14.727Z,7344.00
2018-07-10T07:49:14.698Z,8448.00
2018-07-10T07:50:14.686Z,9344.00
2018-07-10T07:51:14.676Z,8572.00
2018-07-10T07:52:14.665Z,7904.00
2018-07-10T07:53:14.653Z,7984.00
2018-07-10T07:54:14.657Z,7904.00
2018-07-10T07:55:14.633Z,7896.00
2018-07-10T07:56:14.621Z,8236.00
2018-07-10T07:57:14.612Z,8136.00
2018-07-10T07:58:14.616Z,7496.00
2018-07-10T07:59:14.608Z,6676.00
2018-07-10T08:00:14.601Z,5828.00
2018-07-10T08:01:14.572Z,5392.00
2018-07-10T08:02:14.561Z,5828.00
2018-07-10T08:03:14.548Z,6316.00
2018-07-10T08:04:14.537Z,6192.00
2018-07-10T08:05:14.551Z,6512.00
2018-07-10T08:06:14.517Z,8264.00
2018-07-10T08:07:14.505Z,9512.00
2018-07-10T08:08:14.493Z,9844.00
2018-07-10T08:09:14.483Z,9644.00
2018-07-10T08:10:14.480Z,9892.00
2018-07-10T08:11:14.461Z,9276.00
2018-07-10T08:12:14.448Z,8980.00
2018-07-10T08:13:14.439Z,9528.00
2018-07-10T08:14:14.440Z,9700.00
2018-07-10T08:15:14.415Z,10224.00
2018-07-10T08:16:14.422Z,10908.00
2018-07-10T08:17:14.396Z,10884.00
2018-07-10T08:18:14.382Z,10996.00
2018-07-10T08:19:14.413Z,10384.00
2018-07-10T08:20:14.361Z,10024.00
2018-07-10T08:21:14.352Z,10196.00
2018-07-10T08:22:14.353Z,10628.00
2018-07-10T08:23:14.329Z,11488.00
2018-07-10T08:24:14.319Z,12508.00
2018-07-10T08:25:14.305Z,13004.00
2018-07-10T08:26:14.321Z,12012.00
2018-07-10T08:27:14.283Z,12912.00
2018-07-10T08:28:14.274Z,11736.00
2018-07-10T08:29:14.263Z,11656.00
2018-07-10T08:30:14.250Z,14068.00
2018-07-10T08:31:14.239Z,14732.00
2018-07-10T08:32:14.245Z,15220.00
2018-07-10T08:33:14.247Z,12516.00
2018-07-10T08:34:14.210Z,9260.00
2018-07-10T08:35:14.197Z,8408.00
2018-07-10T08:36:14.187Z,8268.00
2018-07-10T08:37:14.176Z,6700.00
2018-07-10T08:38:14.163Z,6716.00
2018-07-10T08:39:14.168Z,6240.00
2018-07-10T08:40:14.144Z,6060.00
2018-07-10T08:41:14.130Z,6012.00
2018-07-10T08:42:14.124Z,5560.00
2018-07-10T08:43:14.127Z,5832.00
2018-07-10T08:44:14.114Z,5572.00
2018-07-10T08:45:14.088Z,6768.00
2018-07-10T08:46:14.078Z,8440.00
2018-07-10T08:47:14.065Z,8828.00
2018-07-10T08:48:14.054Z,9192.00
2018-07-10T08:49:14.067Z,8720.00
2018-07-10T08:50:14.033Z,9132.00
2018-07-10T08:51:14.022Z,8424.00
2018-07-10T08:52:14.012Z,8928.00
2018-07-10T08:53:14.001Z,10164.00
2018-07-10T08:54:13.987Z,10228.00
2018-07-10T08:55:14.005Z,8580.00
2018-07-10T08:56:13.965Z,7164.00
2018-07-10T08:57:13.957Z,6296.00
2018-07-10T08:58:13.943Z,5536.00
2018-07-10T08:59:13.932Z,5240.00
2018-07-10T09:00:13.923Z,5860.00
2018-07-10T09:01:13.924Z,5756.00
2018-07-10T09:02:13.921Z,5924.00
2018-07-10T09:03:13.891Z,5456.00
2018-07-10T09:04:13.879Z,4984.00
2018-07-10T09:05:13.865Z,4740.00
2018-07-10T09:06:13.899Z,4720.00
2018-07-10T09:07:13.844Z,3872.00
2018-07-10T09:08:13.837Z,3812.00
2018-07-10T09:09:13.825Z,3744.00
2018-07-10T09:10:13.815Z,4896.00
2018-07-10T09:11:13.801Z,4816.00
2018-07-10T09:12:13.800Z,5940.00
2018-07-10T09:13:13.803Z,6024.00
2018-07-10T09:14:13.776Z,6016.00
2018-07-10T09:15:13.760Z,6240.00
2018-07-10T09:16:13.750Z,5736.00
2018-07-10T09:17:13.764Z,6932.00
2018-07-10T09:18:13.727Z,6328.00
2018-07-10T09:19:13.716Z,6032.00
2018-07-10T09:20:13.705Z,4544.00
2018-07-10T09:21:13.693Z,4932.00
2018-07-10T09:22:13.680Z,4664.00
2018-07-10T09:23:13.773Z,5472.00
2018-07-10T09:24:13.672Z,4812.00
2018-07-10T09:25:13.651Z,4920.00
2018-07-10T09:26:13.637Z,5068.00
2018-07-10T09:27:13.642Z,5728.00
2018-07-10T09:28:13.632Z,5736.00
2018-07-10T09:29:13.607Z,5200.00
2018-07-10T09:30:13.593Z,6504.00
2018-07-10T09:31:13.583Z,5268.00
2018-07-10T09:32:13.573Z,5488.00
2018-07-10T09:33:13.581Z,5436.00
2018-07-10T09:34:13.550Z,5508.00
2018-07-10T09:35:13.538Z,5292.00
2018-07-10T09:36:13.529Z,4460.00
2018-07-10T09:37:13.520Z,4100.00
2018-07-10T09:38:13.559Z,3584.00
2018-07-10T09:39:13.498Z,3512.00
2018-07-10T09:40:13.488Z,4264.00
2018-07-10T09:41:13.474Z,4184.00
2018-07-10T09:42:13.477Z,4280.00
2018-07-10T09:43:13.505Z,4532.00
2018-07-10T09:44:13.447Z,4872.00
2018-07-10T09:45:13.449Z,4960.00
2018-07-10T09:46:13.426Z,4840.00
2018-07-10T09:47:13.410Z,5320.00
2018-07-10T09:48:13.398Z,5400.00
2018-07-10T09:49:13.400Z,6308.00
2018-07-10T09:50:13.378Z,4892.00
2018-07-10T09:51:13.378Z,4264.00
2018-07-10T09:52:13.358Z,4484.00
2018-07-10T09:53:13.352Z,4776.00
2018-07-10T09:54:13.353Z,5556.00
2018-07-10T09:55:13.322Z,6176.00
2018-07-10T09:56:13.313Z,7344.00
2018-07-10T09:57:13.324Z,6696.00
2018-07-10T09:58:13.290Z,6688.00
2018-07-10T09:59:13.277Z,6884.00
2018-07-10T10:00:13.282Z,8788.00
2018-07-10T10:01:13.280Z,12004.00
2018-07-10T10:02:13.243Z,11916.00
2018-07-10T10:03:13.240Z,9764.00
2018-07-10T10:04:13.226Z,10140.00
2018-07-10T10:05:13.210Z,9744.00
2018-07-10T10:06:13.203Z,8644.00
2018-07-10T10:07:13.205Z,7920.00
2018-07-10T10:08:13.202Z,9300.00
2018-07-10T10:09:13.168Z,8956.00
2018-07-10T10:10:13.159Z,9796.00
2018-07-10T10:11:13.149Z,8680.00
2018-07-10T10:12:13.133Z,7256.00
2018-07-10T10:13:13.123Z,7116.00
2018-07-10T10:14:13.128Z,7464.00
2018-07-10T10:15:13.102Z,7324.00
2018-07-10T10:16:13.095Z,7292.00
2018-07-10T10:17:13.096Z,7320.00
2018-07-10T10:18:13.084Z,7244.00
2018-07-10T10:19:13.059Z,8184.00
2018-07-10T10:20:13.051Z,8624.00
2018-07-10T10:21:13.038Z,7696.00
2018-07-10T10:22:13.026Z,8476.00
2018-07-10T10:23:13.032Z,8728.00
2018-07-10T10:24:13.001Z,8928.00
2018-07-10T10:25:12.994Z,8484.00
2018-07-10T10:26:12.985Z,7860.00
2018-07-10T10:27:12.969Z,8972.00
2018-07-10T10:28:12.961Z,8136.00
2018-07-10T10:29:13.023Z,6508.00
2018-07-10T10:30:12.958Z,6716.00
2018-07-10T10:31:12.928Z,7020.00
2018-07-10T10:32:12.916Z,8160.00
2018-07-10T10:33:12.906Z,8344.00
2018-07-10T10:34:12.913Z,9524.00
2018-07-10T10:35:12.882Z,8564.00
2018-07-10T10:36:12.887Z,10572.00
2018-07-10T10:37:12.860Z,10420.00
2018-07-10T10:38:12.852Z,10232.00
2018-07-10T10:39:12.838Z,8968.00
2018-07-10T10:40:12.842Z,8728.00
2018-07-10T10:41:12.834Z,9812.00
2018-07-10T10:42:12.804Z,10348.00
2018-07-10T10:43:12.796Z,12140.00
2018-07-10T10:44:12.782Z,11492.00
2018-07-10T10:45:12.772Z,11100.00
2018-07-10T10:46:12.778Z,11024.00
2018-07-10T10:47:12.750Z,9748.00
2018-07-10T10:48:12.740Z,10032.00
2018-07-10T10:49:12.730Z,11476.00
2018-07-10T10:50:12.719Z,11672.00
2018-07-10T10:51:12.708Z,10976.00
2018-07-10T10:52:12.709Z,9420.00
2018-07-10T10:53:12.684Z,8704.00
2018-07-10T10:54:12.675Z,9712.00
2018-07-10T10:55:12.662Z,8260.00
2018-07-10T10:56:12.678Z,7628.00
2018-07-10T10:57:12.640Z,7684.00
2018-07-10T10:58:12.632Z,8000.00
2018-07-10T10:59:12.620Z,8012.00
2018-07-10T11:00:12.611Z,7316.00
2018-07-10T11:01:12.599Z,7052.00
2018-07-10T11:02:12.627Z,5600.00
2018-07-10T11:03:12.575Z,5808.00
2018-07-10T11:04:12.564Z,5680.00
2018-07-10T11:05:12.572Z,6120.00
2018-07-10T11:06:12.543Z,6796.00
2018-07-10T11:07:12.550Z,7160.00
2018-07-10T11:08:12.536Z,7488.00
2018-07-10T11:09:12.511Z,6580.00
2018-07-10T11:10:12.501Z,6732.00
2018-07-10T11:11:12.495Z,5596.00
2018-07-10T11:12:12.489Z,6596.00
2018-07-10T11:13:12.465Z,7016.00
2018-07-10T11:14:12.454Z,7744.00
2018-07-10T11:15:12.457Z,9048.00
2018-07-10T11:16:12.434Z,10196.00
2018-07-10T11:17:12.442Z,10928.00
2018-07-10T11:18:12.412Z,10476.00
2018-07-10T11:19:12.417Z,9844.00
2018-07-10T11:20:12.391Z,9272.00
2018-07-10T11:21:12.380Z,8980.00
2018-07-10T11:22:12.368Z,8848.00
2018-07-10T11:23:12.357Z,8348.00
2018-07-10T11:24:12.360Z,8604.00
2018-07-10T11:25:12.337Z,8652.00
2018-07-10T11:26:12.325Z,8484.00
2018-07-10T11:27:12.312Z,9396.00
2018-07-10T11:28:12.304Z,9400.00
2018-07-10T11:29:12.306Z,10452.00
2018-07-10T11:30:12.296Z,10248.00
2018-07-10T11:31:12.268Z,9456.00
2018-07-10T11:32:12.257Z,10380.00
2018-07-10T11:33:12.246Z,9300.00
2018-07-10T11:34:12.236Z,8840.00
2018-07-10T11:35:12.240Z,9088.00
2018-07-10T11:36:12.217Z,8956.00
2018-07-10T11:37:12.205Z,8488.00
2018-07-10T11:38:12.197Z,8008.00
2018-07-10T11:39:12.311Z,8048.00
2018-07-10T11:40:12.175Z,7872.00
2018-07-10T11:41:12.165Z,7408.00
2018-07-10T11:42:12.153Z,8140.00
2018-07-10T11:43:12.142Z,8032.00
2018-07-10T11:44:12.129Z,7744.00
2018-07-10T11:45:12.131Z,6932.00
2018-07-10T11:46:12.124Z,6804.00
2018-07-10T11:47:12.098Z,7112.00
2018-07-10T11:48:12.090Z,6976.00
2018-07-10T11:49:12.083Z,7480.00
2018-07-10T11:50:12.066Z,7796.00
2018-07-10T11:51:12.077Z,7960.00
2018-07-10T11:52:12.040Z,8028.00
2018-07-10T11:53:12.033Z,6944.00
2018-07-10T11:54:12.019Z,7192.00
2018-07-10T11:55:12.010Z,7652.00
2018-07-10T11:56:11.999Z,7248.00
2018-07-10T11:57:12.003Z,7492.00
2018-07-10T11:58:11.975Z,7784.00
2018-07-10T11:59:11.966Z,7704.00
2018-07-10T12:00:11.970Z,8048.00
2018-07-10T12:01:11.945Z,8784.00
2018-07-10T12:02:11.943Z,9592.00
2018-07-10T12:03:11.937Z,10624.00
2018-07-10T12:04:11.909Z,11508.00
2018-07-10T12:05:11.901Z,12160.00
2018-07-10T12:06:11.890Z,12648.00
2018-07-10T12:07:11.900Z,12656.00
2018-07-10T12:08:11.868Z,12848.00
2018-07-10T12:09:11.855Z,12556.00
2018-07-10T12:10:11.846Z,11968.00
2018-07-10T12:11:11.834Z,11004.00
2018-07-10T12:12:11.822Z,12060.00
2018-07-10T12:13:11.826Z,13288.00
2018-07-10T12:14:11.804Z,11156.00
2018-07-10T12:15:11.796Z,9836.00
2018-07-10T12:16:11.784Z,7672.00
2018-07-10T12:17:11.784Z,6596.00
2018-07-10T12:18:11.759Z,6376.00
2018-07-10T12:19:11.774Z,6856.00
2018-07-10T12:20:11.742Z,7304.00
2018-07-10T12:21:11.727Z,6900.00